Newbury, Massachusetts
Current Conditions -  °F | °C
As of 5:53 PM on Friday 28 Nov 2014 (Local Time) from KBVY Reporting Station
Clear Clear  
Wind Chill: 23°   Ceiling: Unl
Heat Index: 28°   Visibility: 10mi
Dew Point: 15°   Wind: 5mph
Humidity: 58%   Direction: 300°WNW
Pressure: 30.12"   Gusts: NA
Location:  42.79°N, 70.83°W
Report Text: KBVY 282253Z 30004KT 10SM CLR M02/M09 A3012 RMK AO2 SLP198 T10221094
Loading
Personal Weather Stations






























Interactive Weather Map New forecast layout! Learn more

10-Day Weather Forecast

Advertisements
Track Severe Weather on mobile